Time;durP1;ratioP1;P1;durP2;ratioP2;P2;SDS_P1;SDS_P2;PMS_P1;PMS_P2;Temp;Humidity;BMP_temperature;BMP_pressure;BME280_temperature;BME280_humidity;BME280_pressure;Samples;Min_cycle;Max_cycle;Signal;HPM_P1;HPM_P2
2022/10/12 00:01:17;;;;;;;20.70;11.60;;;;;;;8.16;87.47;101828.08;106806;1274;61014;-74
2022/10/12 00:03:46;;;;;;;22.10;11.30;;;;;;;8.10;85.69;101830.90;106783;1283;62637;-76
2022/10/12 00:06:22;;;;;;;20.60;11.10;;;;;;;8.02;85.02;101830.92;106711;1274;62376;-76
2022/10/12 00:08:53;;;;;;;17.30;10.30;;;;;;;7.90;85.71;101830.61;106546;1277;60840;-76
2022/10/12 00:11:26;;;;;;;17.40;11.30;;;;;;;7.77;89.59;101832.71;106447;1277;72686;-77
2022/10/12 00:13:55;;;;;;;;;;;;;;;7.76;90.64;101833.81;106833;1273;72700;-76
2022/10/12 00:16:25;;;;;;;20.10;11.50;;;;;;;7.75;90.83;101837.82;106767;1274;70462;-74
2022/10/12 00:18:55;;;;;;;22.60;12.30;;;;;;;7.77;90.29;101835.50;106433;1277;72504;-74
2022/10/12 00:21:26;;;;;;;21.90;11.80;;;;;;;7.74;90.30;101839.94;106713;1280;61696;-77
2022/10/12 00:24:00;;;;;;;18.00;10.50;;;;;;;7.70;90.38;101835.95;106391;1277;61273;-75
2022/10/12 00:26:29;;;;;;;21.80;12.00;;;;;;;7.65;90.25;101832.55;106685;1273;73557;-75
2022/10/12 00:29:00;;;;;;;17.20;11.20;;;;;;;7.59;90.34;101834.16;106826;1274;71941;-75
2022/10/12 00:31:30;;;;;;;19.50;11.10;;;;;;;7.55;90.10;101833.83;106591;1280;70073;-75
2022/10/12 00:34:01;;;;;;;16.00;11.10;;;;;;;7.50;89.14;101832.48;106565;1276;63615;-75
2022/10/12 00:36:34;;;;;;;21.30;11.00;;;;;;;7.41;89.38;101835.42;106727;1273;60972;-75
2022/10/12 00:39:07;;;;;;;21.20;11.70;;;;;;;7.35;89.61;101837.79;106846;1273;57619;-75
2022/10/12 00:41:42;;;;;;;22.20;11.80;;;;;;;7.25;90.89;101834.52;106853;1273;72294;-75
2022/10/12 00:44:50;;;;;;;19.20;12.20;;;;;;;7.21;90.89;101834.34;106870;1272;62187;-74
2022/10/12 00:47:24;;;;;;;21.40;11.70;;;;;;;7.15;91.17;101833.19;106210;1280;70601;-74
2022/10/12 00:50:10;;;;;;;20.00;11.90;;;;;;;7.17;91.11;101833.83;106262;1279;62845;-74
2022/10/12 00:52:51;;;;;;;22.90;11.50;;;;;;;7.14;89.81;101838.27;106646;1283;62907;-74
2022/10/12 00:55:22;;;;;;;20.50;11.30;;;;;;;7.04;90.04;101836.77;106759;1274;57380;-74
2022/10/12 00:57:54;;;;;;;19.60;11.40;;;;;;;6.96;90.76;101835.20;106585;1283;72833;-74
2022/10/12 01:00:22;;;;;;;18.40;11.10;;;;;;;6.88;91.32;101834.27;106906;1263;61204;-75
2022/10/12 01:02:53;;;;;;;20.90;11.80;;;;;;;6.85;91.34;101834.38;106674;1283;59226;-77
2022/10/12 01:05:23;;;;;;;24.30;12.60;;;;;;;6.82;91.18;101836.08;106774;1277;63262;-76
2022/10/12 01:07:51;;;;;;;22.50;12.50;;;;;;;6.79;90.85;101840.17;106605;1271;57712;-76
2022/10/12 01:10:20;;;;;;;19.40;12.40;;;;;;;6.73;91.99;101840.91;106804;1281;61305;-75
2022/10/12 01:12:49;;;;;;;19.10;11.10;;;;;;;6.69;91.84;101835.55;106673;1279;62725;-75
2022/10/12 01:15:17;;;;;;;19.50;10.90;;;;;;;6.63;91.92;101835.73;106854;1274;72389;-75
2022/10/12 01:18:10;;;;;;;20.90;11.70;;;;;;;6.61;91.84;101840.68;106688;1272;59844;-76
2022/10/12 01:21:30;;;;;;;20.00;12.20;;;;;;;6.60;92.12;101841.42;106885;1268;63232;-74
2022/10/12 01:25:03;;;;;;;21.30;11.70;;;;;;;6.57;91.45;101843.61;106664;1269;57723;-74
2022/10/12 01:27:48;;;;;;;19.90;11.40;;;;;;;6.52;91.20;101847.92;106638;1277;57761;-74
2022/10/12 01:30:26;;;;;;;22.80;13.10;;;;;;;6.47;91.91;101849.20;106644;1277;62983;-74
2022/10/12 01:33:22;;;;;;;21.60;11.70;;;;;;;6.44;92.65;101847.36;106704;1274;70617;-74
2022/10/12 01:36:02;;;;;;;22.50;11.80;;;;;;;6.43;92.35;101848.11;106767;1273;69767;-75
2022/10/12 01:38:54;;;;;;;22.50;13.10;;;;;;;6.43;91.97;101850.88;106756;1277;74304;-76
2022/10/12 01:41:35;;;;;;;19.40;12.10;;;;;;;6.40;92.65;101844.79;106736;1276;62353;-75
2022/10/12 01:44:04;;;;;;;19.10;12.00;;;;;;;6.42;92.28;101852.84;106640;1277;57709;-76
2022/10/12 01:46:33;;;;;;;18.80;12.00;;;;;;;6.42;92.14;101850.77;106471;1270;62225;-76
2022/10/12 01:49:01;;;;;;;23.50;11.90;;;;;;;6.40;91.43;101847.73;106785;1273;72634;-76
2022/10/12 01:52:07;;;;;;;21.30;12.00;;;;;;;6.35;91.71;101847.02;106679;1283;59913;-76
2022/10/12 01:54:47;;;;;;;22.60;12.50;;;;;;;6.32;91.95;101843.69;106416;1279;73960;-75
2022/10/12 01:57:19;;;;;;;17.90;12.50;;;;;;;6.34;91.83;101844.27;106761;1273;61219;-77
2022/10/12 02:00:08;;;;;;;21.30;11.20;;;;;;;6.34;92.09;101846.02;106799;1283;57820;-76
2022/10/12 02:03:16;;;;;;;18.40;11.10;;;;;;;6.32;90.17;101849.91;106580;1283;72850;-76
2022/10/12 02:06:31;;;;;;;18.10;11.00;;;;;;;6.24;90.09;101850.89;106908;1276;61985;-77
2022/10/12 02:09:29;;;;;;;17.90;10.80;;;;;;;6.15;91.81;101853.98;106736;1277;68648;-77
2022/10/12 02:12:05;;;;;;;23.40;11.10;;;;;;;6.16;91.92;101851.87;106713;1283;62821;-76
2022/10/12 02:14:44;;;;;;;20.10;11.10;;;;;;;6.16;91.88;101856.72;106715;1280;57683;-76
2022/10/12 02:17:17;;;;;;;18.30;11.50;;;;;;;6.15;91.80;101856.90;106793;1273;57769;-75
2022/10/12 02:19:52;;;;;;;21.90;11.80;;;;;;;6.12;90.73;101862.71;106775;1274;73570;-75
2022/10/12 02:22:23;;;;;;;19.80;11.10;;;;;;;6.07;90.85;101865.14;106805;1271;71307;-76
2022/10/12 02:24:57;;;;;;;18.20;11.30;;;;;;;6.02;91.20;101862.21;106772;1282;69177;-79
2022/10/12 02:27:26;;;;;;;18.00;12.00;;;;;;;6.00;92.40;101863.82;106547;1277;73961;-78
2022/10/12 02:29:54;;;;;;;19.30;11.20;;;;;;;6.00;92.58;101861.75;106435;1273;63072;-77
2022/10/12 02:32:53;;;;;;;19.40;11.00;;;;;;;6.00;92.88;101863.13;106535;1276;57701;-78
2022/10/12 02:35:31;;;;;;;21.50;11.60;;;;;;;6.00;92.28;101862.09;106671;1277;71962;-77
2022/10/12 02:38:25;;;;;;;20.50;11.40;;;;;;;6.00;92.25;101858.45;106704;1275;71008;-78
2022/10/12 02:41:02;;;;;;;;;;;;;;;6.00;92.65;101861.77;106664;1274;70846;-77
2022/10/12 02:43:46;;;;;;;19.80;10.60;;;;;;;5.96;91.95;101864.30;106690;1277;73723;-78
2022/10/12 02:46:18;;;;;;;16.10;11.30;;;;;;;5.91;92.57;101869.33;106702;1274;57901;-77
2022/10/12 02:48:48;;;;;;;16.90;10.90;;;;;;;5.85;92.68;101870.03;106689;1273;60452;-76
2022/10/12 02:51:18;;;;;;;20.00;10.70;;;;;;;5.79;93.10;101871.77;106633;1274;73641;-77
2022/10/12 02:53:48;;;;;;;20.40;10.90;;;;;;;5.77;93.56;101871.35;106724;1278;62716;-77
2022/10/12 02:56:17;;;;;;;16.50;10.20;;;;;;;5.76;93.42;101872.73;106676;1273;70570;-76
2022/10/12 02:58:46;;;;;;;22.60;11.60;;;;;;;5.74;92.67;101875.06;106681;1269;63727;-75
2022/10/12 03:01:16;;;;;;;20.40;11.70;;;;;;;5.71;92.69;101878.63;106604;1283;57068;-75
2022/10/12 03:03:45;;;;;;;21.40;10.70;;;;;;;5.76;92.62;101877.10;106558;1278;60557;-75
2022/10/12 03:06:13;;;;;;;16.90;10.30;;;;;;;5.87;92.13;101876.02;106816;1275;64524;-79
2022/10/12 03:08:42;;;;;;;19.30;12.20;;;;;;;5.92;91.49;101876.40;106945;1273;71507;-72
2022/10/12 03:11:12;;;;;;;18.60;12.10;;;;;;;5.90;91.04;101878.88;106783;1273;60975;-73
2022/10/12 03:13:41;;;;;;;20.00;11.40;;;;;;;5.85;91.37;101877.48;106609;1276;63286;-78
2022/10/12 03:16:10;;;;;;;17.10;10.90;;;;;;;5.83;91.56;101878.91;106806;1273;62150;-71
2022/10/12 03:18:39;;;;;;;19.80;11.80;;;;;;;5.82;91.40;101883.61;106693;1274;60322;-71
2022/10/12 03:21:08;;;;;;;22.40;11.30;;;;;;;5.80;92.15;101884.58;106715;1284;72778;-70
2022/10/12 03:23:37;;;;;;;20.90;11.30;;;;;;;5.79;91.84;101886.66;106938;1264;71225;-71
2022/10/12 03:26:06;;;;;;;19.00;10.60;;;;;;;5.77;91.61;101888.64;106825;1277;59884;-77
2022/10/12 03:28:35;;;;;;;19.60;11.20;;;;;;;5.74;91.97;101889.08;106639;1271;63386;-75
2022/10/12 03:31:04;;;;;;;19.70;12.00;;;;;;;5.72;92.87;101887.59;106522;1279;62900;-72
2022/10/12 03:33:32;;;;;;;20.10;11.50;;;;;;;5.72;92.87;101881.88;106546;1277;57807;-72
2022/10/12 03:36:01;;;;;;;18.50;11.00;;;;;;;5.71;92.96;101883.64;106794;1283;62191;-73
2022/10/12 03:38:30;;;;;;;32.80;17.90;;;;;;;5.71;92.87;101886.04;106894;1268;71402;-73
2022/10/12 03:40:58;;;;;;;21.80;12.70;;;;;;;5.72;93.19;101888.80;106797;1277;60615;-73
2022/10/12 03:43:34;;;;;;;22.30;14.20;;;;;;;5.68;93.52;101891.71;106791;1283;74066;-78
2022/10/12 03:46:02;;;;;;;22.70;14.30;;;;;;;5.64;93.41;101893.91;106684;1283;61859;-77
2022/10/12 03:48:31;;;;;;;25.70;13.40;;;;;;;5.58;92.64;101889.06;106800;1273;57148;-79
2022/10/12 03:50:59;;;;;;;22.80;14.40;;;;;;;5.51;92.52;101893.11;106836;1274;73663;-79
2022/10/12 03:53:28;;;;;;;21.70;12.30;;;;;;;5.46;92.71;101889.45;106785;1273;62262;-75
2022/10/12 03:55:57;;;;;;;25.20;13.50;;;;;;;5.46;92.70;101893.27;106841;1273;69758;-75
2022/10/12 03:58:25;;;;;;;28.30;15.00;;;;;;;5.43;92.94;101894.77;106811;1283;63179;-75
2022/10/12 04:00:54;;;;;;;23.90;14.80;;;;;;;5.39;92.69;101892.81;106809;1277;57109;-76
2022/10/12 04:03:23;;;;;;;28.00;15.10;;;;;;;5.36;93.00;101895.33;106648;1280;57223;-73
2022/10/12 04:05:56;;;;;;;24.10;13.60;;;;;;;5.28;93.46;101886.25;106828;1277;73642;-77
2022/10/12 04:08:28;;;;;;;22.70;12.70;;;;;;;5.30;93.81;101897.59;106846;1278;61535;-78
2022/10/12 04:10:57;;;;;;;20.80;12.70;;;;;;;5.28;93.57;101901.27;106859;1283;69677;-76
2022/10/12 04:13:25;;;;;;;23.10;12.70;;;;;;;5.26;93.39;101903.24;106817;1277;72880;-74
2022/10/12 04:15:54;;;;;;;24.30;13.10;;;;;;;5.24;93.68;101904.16;106886;1273;57128;-77
2022/10/12 04:18:23;;;;;;;23.80;13.90;;;;;;;5.23;93.77;101901.77;106861;1283;61307;-77
2022/10/12 04:20:51;;;;;;;27.70;14.20;;;;;;;5.21;93.89;101902.52;106832;1277;62938;-76
2022/10/12 04:23:20;;;;;;;27.50;13.90;;;;;;;5.19;94.09;101904.30;106893;1274;60964;-76
2022/10/12 04:25:48;;;;;;;22.60;13.20;;;;;;;5.21;94.01;101904.27;106849;1273;69725;-75
2022/10/12 04:28:17;;;;;;;22.50;14.50;;;;;;;5.22;93.45;101907.85;106824;1273;63781;-74
2022/10/12 04:30:46;;;;;;;24.70;14.00;;;;;;;5.24;94.70;101915.73;106685;1275;57615;-77
2022/10/12 04:33:14;;;;;;;27.60;13.90;;;;;;;5.25;94.65;101910.36;106849;1274;61252;-81
2022/10/12 04:35:43;;;;;;;25.10;14.00;;;;;;;5.28;94.44;101909.05;106829;1273;71864;-81
2022/10/12 04:38:12;;;;;;;27.40;14.10;;;;;;;5.30;94.70;101919.17;106953;1273;71437;-79
2022/10/12 04:40:45;;;;;;;23.70;14.90;;;;;;;5.33;93.90;101920.64;106709;1277;69597;-82
2022/10/12 04:43:15;;;;;;;26.60;14.40;;;;;;;5.35;92.79;101923.38;106860;1283;73738;-82
2022/10/12 04:45:44;;;;;;;30.30;14.50;;;;;;;5.35;92.99;101926.31;106778;1269;57617;-79
2022/10/12 04:48:12;;;;;;;26.30;15.10;;;;;;;5.37;93.43;101930.02;106717;1279;61216;-78
2022/10/12 04:50:42;;;;;;;28.50;14.20;;;;;;;5.41;93.38;101932.83;106783;1283;62068;-79
2022/10/12 04:53:10;;;;;;;26.70;16.60;;;;;;;5.44;94.72;101938.10;106807;1274;71659;-79
2022/10/12 04:55:39;;;;;;;23.90;14.70;;;;;;;5.50;94.89;101944.31;106681;1283;60034;-79
2022/10/12 04:58:08;;;;;;;23.60;13.80;;;;;;;5.57;95.31;101944.59;106613;1274;63309;-80
2022/10/12 05:00:37;;;;;;;26.10;14.30;;;;;;;5.66;94.76;101942.77;106761;1282;62961;-81
2022/10/12 05:03:05;;;;;;;24.40;14.20;;;;;;;5.73;94.41;101949.44;106803;1268;57139;-78
2022/10/12 05:05:35;;;;;;;25.30;14.50;;;;;;;5.80;93.89;101952.12;106639;1273;63031;-82
2022/10/12 05:08:04;;;;;;;25.00;14.70;;;;;;;5.86;93.36;101956.45;106606;1274;62595;-78
2022/10/12 05:10:32;;;;;;;26.40;14.90;;;;;;;5.92;92.52;101961.63;106531;1274;70515;-78
2022/10/12 05:13:01;;;;;;;39.60;18.80;;;;;;;5.96;93.11;101966.52;106745;1272;63816;-77
2022/10/12 05:15:29;;;;;;;32.30;16.50;;;;;;;6.05;93.68;101961.89;106740;1273;62238;-78
2022/10/12 05:17:58;;;;;;;37.10;18.50;;;;;;;6.15;93.89;101965.20;106471;1277;393887;-77
2022/10/12 05:20:27;;;;;;;32.90;16.80;;;;;;;6.28;92.97;101965.78;106763;1277;71349;-76
2022/10/12 05:22:58;;;;;;;28.70;15.10;;;;;;;6.42;92.83;101966.68;106910;1274;71507;-79
2022/10/12 05:25:30;;;;;;;33.90;16.80;;;;;;;6.54;92.56;101975.59;106934;1272;61161;-76
2022/10/12 05:27:58;;;;;;;30.30;16.10;;;;;;;6.69;92.14;101977.66;106823;1274;73100;-76
2022/10/12 05:30:27;;;;;;;47.90;25.90;;;;;;;6.82;91.63;101974.09;106803;1274;57266;-77
2022/10/12 05:32:56;;;;;;;38.10;19.00;;;;;;;6.98;90.81;101976.10;106691;1283;57135;-79
2022/10/12 05:35:24;;;;;;;40.20;18.50;;;;;;;7.14;90.31;101979.13;106706;1277;73596;-77
2022/10/12 05:37:53;;;;;;;43.70;24.80;;;;;;;7.28;89.01;101979.80;106913;1274;61329;-79
2022/10/12 05:40:22;;;;;;;47.70;24.30;;;;;;;7.43;87.69;101981.28;106835;1274;70643;-85
2022/10/12 05:42:50;;;;;;;33.10;17.00;;;;;;;7.59;87.12;101985.70;106839;1277;63918;-81
2022/10/12 05:45:19;;;;;;;39.80;17.00;;;;;;;7.75;86.33;101989.38;106845;1277;59026;-82
2022/10/12 05:47:47;;;;;;;37.30;16.00;;;;;;;7.88;85.98;101988.19;106845;1273;60990;-86
2022/10/12 05:50:16;;;;;;;35.50;15.90;;;;;;;8.00;85.98;101987.84;106888;1278;62829;-81
2022/10/12 05:52:45;;;;;;;31.80;16.30;;;;;;;8.06;85.30;101992.46;107001;1269;72212;-78
2022/10/12 05:55:14;;;;;;;33.40;16.90;;;;;;;8.13;84.32;101992.85;106907;1278;69933;-79
2022/10/12 05:57:42;;;;;;;34.40;16.50;;;;;;;8.16;84.00;101997.40;106913;1277;63792;-81
2022/10/12 06:00:17;;;;;;;31.90;16.80;;;;;;;8.23;83.47;102000.61;106891;1274;61101;-82
2022/10/12 06:02:45;;;;;;;35.80;17.80;;;;;;;8.22;83.43;102003.77;106959;1268;61378;-79
2022/10/12 06:05:14;;;;;;;36.70;17.70;;;;;;;8.23;83.52;102006.52;106866;1280;63211;-80
2022/10/12 06:07:43;;;;;;;32.80;17.10;;;;;;;8.23;83.70;102008.93;107028;1269;61637;-79
2022/10/12 06:10:11;;;;;;;38.30;18.50;;;;;;;8.26;83.59;102010.20;106952;1276;70555;-82
2022/10/12 06:12:40;;;;;;;38.20;17.70;;;;;;;8.27;83.73;102009.29;106865;1280;62970;-80
2022/10/12 06:15:09;;;;;;;38.50;16.80;;;;;;;8.34;83.89;102012.14;106841;1274;62665;-78
2022/10/12 06:17:37;;;;;;;31.20;16.60;;;;;;;8.46;83.45;102016.65;106849;1269;60556;-83
2022/10/12 06:20:07;;;;;;;29.30;17.20;;;;;;;8.54;83.20;102014.77;106789;1277;62976;-81
2022/10/12 06:22:35;;;;;;;25.50;15.50;;;;;;;8.58;83.25;102012.18;106953;1273;60997;-84
2022/10/12 06:25:05;;;;;;;29.20;16.70;;;;;;;8.65;83.12;102018.65;106504;1273;68588;-77
2022/10/12 06:27:33;;;;;;;25.60;13.30;;;;;;;8.67;83.60;102017.67;106698;1274;73676;-83
2022/10/12 06:30:03;;;;;;;31.00;16.40;;;;;;;8.89;83.02;102024.54;106525;1273;60361;-78
2022/10/12 06:32:32;;;;;;;29.80;17.10;;;;;;;9.04;82.47;102022.47;106688;1277;61354;-78
2022/10/12 06:35:00;;;;;;;27.90;16.80;;;;;;;9.16;82.35;102024.88;106702;1277;73454;-79
2022/10/12 06:37:30;;;;;;;30.10;18.10;;;;;;;9.31;82.31;102020.20;106786;1274;72085;-76
2022/10/12 06:40:18;;;;;;;31.70;17.70;;;;;;;9.43;81.94;102022.55;106665;1274;59987;-77
2022/10/12 06:42:50;;;;;;;26.90;16.70;;;;;;;9.57;81.21;102027.30;106426;1280;62539;-77
2022/10/12 06:45:29;;;;;;;40.90;19.70;;;;;;;9.77;80.54;102031.41;106649;1269;57643;-78
2022/10/12 06:47:58;;;;;;;36.20;20.10;;;;;;;9.98;80.35;102027.95;106457;1277;61319;-79
2022/10/12 06:50:27;;;;;;;34.90;19.00;;;;;;;10.13;80.05;102028.10;106692;1282;62715;-83
2022/10/12 06:52:55;;;;;;;30.90;18.90;;;;;;;10.29;80.13;102023.64;106874;1274;71308;-79
2022/10/12 06:55:24;;;;;;;30.00;18.40;;;;;;;10.48;79.36;102021.13;106772;1273;60005;-80
2022/10/12 06:57:54;;;;;;;30.60;19.10;;;;;;;10.67;78.51;102017.71;106792;1285;73094;-79
2022/10/12 07:00:23;;;;;;;29.30;18.70;;;;;;;10.78;78.20;102017.83;106907;1275;57740;-80
2022/10/12 07:02:52;;;;;;;33.30;17.50;;;;;;;10.89;77.56;102025.94;106799;1272;59348;-82
2022/10/12 07:05:23;;;;;;;30.30;17.70;;;;;;;11.01;77.07;102028.45;106776;1273;72708;-77
2022/10/12 07:07:51;;;;;;;30.20;18.00;;;;;;;11.08;76.95;102024.80;106777;1278;60836;-78
2022/10/12 07:10:20;;;;;;;33.40;21.20;;;;;;;11.17;76.49;102018.04;106675;1274;68932;-86
2022/10/12 07:12:48;;;;;;;38.70;22.10;;;;;;;11.28;76.56;102029.30;106558;1280;74194;-77
2022/10/12 07:15:17;;;;;;;37.20;21.10;;;;;;;11.44;76.16;102032.39;106688;1277;57561;-77
2022/10/12 07:17:45;;;;;;;34.30;21.60;;;;;;;11.68;75.42;102028.30;106700;1274;61324;-76
2022/10/12 07:20:15;;;;;;;36.20;20.20;;;;;;;11.74;75.67;102028.33;106643;1270;62044;-79
2022/10/12 07:22:43;;;;;;;34.10;20.90;;;;;;;11.85;75.60;102026.13;106676;1283;62535;-80
2022/10/12 07:25:12;;;;;;;36.10;21.10;;;;;;;11.96;75.49;102024.14;106665;1277;69135;-78
2022/10/12 07:27:40;;;;;;;35.80;22.20;;;;;;;12.20;73.84;102023.23;107000;1270;73039;-77
2022/10/12 07:30:10;;;;;;;28.10;17.30;;;;;;;12.30;72.96;102018.99;107068;1277;57687;-75
2022/10/12 07:32:39;;;;;;;28.40;17.00;;;;;;;12.30;72.94;102017.23;107080;1274;57218;-77
2022/10/12 07:35:08;;;;;;;34.80;19.10;;;;;;;12.35;72.97;102019.00;107130;1273;73582;-79
2022/10/12 07:37:36;;;;;;;39.30;21.50;;;;;;;12.26;73.00;102015.58;107201;1266;72006;-79
2022/10/12 07:40:07;;;;;;;34.20;20.00;;;;;;;12.17;73.68;102017.11;107113;1273;70344;-78
2022/10/12 07:42:35;;;;;;;41.40;23.80;;;;;;;12.24;73.82;102020.06;107087;1277;72899;-78
2022/10/12 07:45:27;;;;;;;35.10;20.30;;;;;;;12.26;73.83;102019.60;107111;1279;57130;-79
2022/10/12 07:47:56;;;;;;;65.90;33.30;;;;;;;12.35;74.08;102019.59;106956;1268;60451;-79
2022/10/12 07:50:24;;;;;;;40.10;21.10;;;;;;;12.43;73.62;102017.87;107128;1273;62970;-77
2022/10/12 07:52:53;;;;;;;35.00;16.10;;;;;;;12.61;72.67;102014.38;107213;1265;61424;-77
2022/10/12 07:55:22;;;;;;;33.00;18.50;;;;;;;12.64;72.36;102013.81;107124;1268;70504;-77
2022/10/12 07:57:50;;;;;;;29.50;19.00;;;;;;;12.60;72.60;102015.84;107138;1271;63132;-80
2022/10/12 08:00:21;;;;;;;30.40;17.50;;;;;;;12.67;72.31;102007.54;107149;1274;60536;-76
2022/10/12 08:02:49;;;;;;;34.10;19.00;;;;;;;12.71;72.24;102012.17;107106;1274;57174;-76
2022/10/12 08:05:20;;;;;;;53.20;28.40;;;;;;;12.72;72.28;102011.77;107173;1277;62063;-77
2022/10/12 08:07:50;;;;;;;36.80;21.30;;;;;;;12.76;72.68;102011.67;107266;1264;61785;-79
2022/10/12 08:10:19;;;;;;;33.70;20.30;;;;;;;12.87;72.61;102009.98;107191;1270;59212;-79
2022/10/12 08:12:48;;;;;;;40.40;20.20;;;;;;;12.95;72.14;102010.33;107123;1274;62605;-79
2022/10/12 08:15:19;;;;;;;36.50;20.40;;;;;;;13.17;70.71;102009.33;107174;1271;57815;-76
2022/10/12 08:17:49;;;;;;;40.20;21.20;;;;;;;13.31;69.78;102008.84;107174;1273;59874;-77
2022/10/12 08:20:17;;;;;;;36.30;21.00;;;;;;;13.41;69.57;102013.76;107027;1277;63620;-77
2022/10/12 08:22:46;;;;;;;39.80;24.30;;;;;;;13.55;69.26;102015.70;107238;1279;70860;-79
2022/10/12 08:25:14;;;;;;;34.00;22.50;;;;;;;13.75;69.35;102012.33;107134;1270;70919;-78
2022/10/12 08:27:43;;;;;;;37.50;20.90;;;;;;;14.02;67.67;102007.70;107094;1274;63668;-79
2022/10/12 08:30:12;;;;;;;36.10;20.70;;;;;;;14.18;66.96;102005.95;107140;1274;61352;-78
2022/10/12 08:32:41;;;;;;;39.10;22.10;;;;;;;14.18;66.59;102005.07;107229;1273;57637;-80
2022/10/12 08:35:09;;;;;;;31.70;19.20;;;;;;;14.10;67.12;102001.20;107210;1273;72973;-83
2022/10/12 08:37:38;;;;;;;34.10;21.20;;;;;;;14.24;66.65;102002.04;107293;1265;60702;-86
2022/10/12 08:40:27;;;;;;;39.10;21.40;;;;;;;14.31;66.52;102000.35;107065;1277;59336;-84
2022/10/12 08:43:12;;;;;;;30.70;18.10;;;;;;;14.42;66.32;102002.59;107100;1269;63260;-84
2022/10/12 08:45:55;;;;;;;34.80;20.60;;;;;;;14.56;65.58;102005.50;107107;1268;57694;-84
2022/10/12 08:48:33;;;;;;;33.70;19.60;;;;;;;14.56;66.19;102003.91;107172;1274;61294;-84
2022/10/12 08:51:09;;;;;;;32.00;17.70;;;;;;;14.84;64.76;102003.19;107184;1269;72833;-85
2022/10/12 08:54:02;;;;;;;34.70;21.60;;;;;;;14.82;64.93;102002.10;107198;1265;72544;-83
2022/10/12 08:56:33;;;;;;;26.60;18.20;;;;;;;14.84;65.47;102002.20;107099;1273;71078;-84
2022/10/12 08:59:02;;;;;;;31.20;17.80;;;;;;;15.11;65.64;101997.81;107101;1275;71960;-85
2022/10/12 09:01:37;;;;;;;36.60;19.70;;;;;;;15.49;63.61;101994.73;107070;1274;60956;-82
2022/10/12 09:05:02;;;;;;;30.80;17.80;;;;;;;15.67;63.58;101999.59;107126;1272;61452;-81
2022/10/12 09:08:00;;;;;;;31.30;18.30;;;;;;;15.88;62.36;102000.30;106801;1277;62849;-80
2022/10/12 09:11:19;;;;;;;33.70;19.60;;;;;;;15.99;62.63;101998.45;107231;1268;60865;-82
2022/10/12 09:14:05;;;;;;;29.60;17.70;;;;;;;16.27;61.08;101996.34;106758;1279;70577;-80
2022/10/12 09:16:41;;;;;;;30.80;17.30;;;;;;;16.39;61.06;101998.91;106703;1280;72951;-78
2022/10/12 09:19:36;;;;;;;28.80;16.20;;;;;;;16.43;59.90;101997.71;107042;1274;57766;-81
2022/10/12 09:22:12;;;;;;;29.70;15.40;;;;;;;16.49;60.07;101992.91;107232;1269;61354;-82
2022/10/12 09:24:40;;;;;;;26.30;16.90;;;;;;;16.56;59.43;101991.77;107086;1273;74128;-82
2022/10/12 09:27:16;;;;;;;31.80;18.80;;;;;;;16.44;60.18;101993.41;107106;1274;61688;-83
2022/10/12 09:30:01;;;;;;;31.90;18.70;;;;;;;16.51;60.33;101993.42;107132;1274;70525;-84
2022/10/12 09:32:51;;;;;;;25.00;16.80;;;;;;;16.63;59.97;101987.70;107065;1275;72870;-82
2022/10/12 09:35:19;;;;;;;19.70;13.50;;;;;;;16.78;59.16;101993.95;107090;1277;59231;-81
2022/10/12 09:37:52;;;;;;;29.10;14.90;;;;;;;17.08;58.55;101991.91;107087;1277;57104;-85
2022/10/12 09:40:30;;;;;;;30.20;17.30;;;;;;;17.24;58.42;101990.16;107205;1277;63093;-84
2022/10/12 09:43:01;;;;;;;22.60;15.40;;;;;;;17.41;58.09;101993.72;107265;1262;62226;-81
2022/10/12 09:45:33;;;;;;;21.20;15.00;;;;;;;17.56;57.38;101991.27;107211;1267;59202;-82
2022/10/12 09:48:23;;;;;;;23.10;14.20;;;;;;;17.62;57.50;101992.66;107128;1267;63689;-80
2022/10/12 09:50:59;;;;;;;30.90;16.20;;;;;;;17.66;57.20;101984.22;107189;1268;57721;-78
2022/10/12 09:53:47;;;;;;;27.70;16.50;;;;;;;17.73;57.07;101981.72;107298;1272;57716;-79
2022/10/12 09:56:45;;;;;;;25.50;14.50;;;;;;;17.84;56.11;101977.72;107280;1271;74302;-82
2022/10/12 09:59:37;;;;;;;19.50;12.30;;;;;;;17.81;54.23;101971.05;107286;1277;61483;-80
2022/10/12 10:02:12;;;;;;;19.40;12.50;;;;;;;17.69;53.35;101977.30;107229;1277;59257;-79
2022/10/12 10:04:43;;;;;;;19.90;11.30;;;;;;;17.88;54.14;101972.23;107208;1274;74327;-76
2022/10/12 10:07:33;;;;;;;22.70;11.90;;;;;;;17.96;54.02;101973.30;107200;1268;57126;-79
2022/10/12 10:10:10;;;;;;;15.80;9.20;;;;;;;18.06;52.99;101972.70;107165;1267;57619;-79
2022/10/12 10:12:51;;;;;;;15.60;9.30;;;;;;;18.16;52.39;101973.42;107085;1272;62242;-76
2022/10/12 10:15:32;;;;;;;16.30;10.30;;;;;;;18.20;51.64;101965.30;107063;1274;62351;-78
2022/10/12 10:18:25;;;;;;;16.30;9.70;;;;;;;18.73;51.07;101962.21;107021;1268;59624;-79
2022/10/12 10:20:59;;;;;;;16.50;9.90;;;;;;;19.14;50.48;101960.56;107031;1270;73914;-80
2022/10/12 10:23:36;;;;;;;17.20;10.10;;;;;;;19.37;48.37;101959.31;107028;1267;57984;-81
2022/10/12 10:26:12;;;;;;;17.40;8.90;;;;;;;19.65;47.93;101956.67;107074;1272;57710;-79
2022/10/12 10:28:47;;;;;;;14.00;9.30;;;;;;;20.16;46.14;101951.52;107076;1279;73042;-78
2022/10/12 10:31:26;;;;;;;16.10;9.80;;;;;;;20.15;45.04;101943.52;107146;1265;72159;-80
2022/10/12 10:34:15;;;;;;;17.40;12.00;;;;;;;20.43;46.33;101941.23;107184;1273;59197;-82
2022/10/12 10:36:55;;;;;;;17.80;12.00;;;;;;;20.22;46.13;101950.11;107070;1272;62670;-81
2022/10/12 10:39:45;;;;;;;20.50;11.10;;;;;;;20.26;46.21;101945.80;107159;1269;61300;-81
2022/10/12 10:42:20;;;;;;;19.30;11.70;;;;;;;20.47;46.21;101942.31;107173;1274;61558;-78
2022/10/12 10:44:56;;;;;;;20.30;12.50;;;;;;;20.71;45.15;101941.04;107160;1274;62714;-83
2022/10/12 10:47:25;;;;;;;15.70;10.30;;;;;;;20.99;44.73;101936.59;107254;1280;62948;-80
2022/10/12 10:50:00;;;;;;;16.10;10.90;;;;;;;20.56;44.20;101932.25;107176;1274;70403;-81
2022/10/12 10:52:35;;;;;;;15.80;10.50;;;;;;;20.77;44.90;101925.77;107216;1273;72492;-72
2022/10/12 10:55:10;;;;;;;15.60;10.40;;;;;;;21.08;45.17;101927.00;107201;1273;57036;-79
2022/10/12 10:58:02;;;;;;;21.20;11.30;;;;;;;21.39;43.71;101925.91;107234;1276;61297;-78
2022/10/12 11:00:34;;;;;;;17.60;9.90;;;;;;;21.54;43.64;101923.58;107199;1267;73460;-76
2022/10/12 11:03:46;;;;;;;18.20;9.00;;;;;;;21.76;43.76;101916.39;107296;1272;61971;-76
2022/10/12 11:06:46;;;;;;;13.70;9.00;;;;;;;22.00;42.77;101914.48;107240;1272;59300;-74
2022/10/12 11:09:36;;;;;;;14.00;8.40;;;;;;;22.62;42.37;101911.09;107182;1274;73828;-73
2022/10/12 11:12:24;;;;;;;14.40;8.70;;;;;;;22.62;40.63;101911.30;107204;1274;60279;-77
2022/10/12 11:15:14;;;;;;;13.90;8.10;;;;;;;22.62;40.94;101908.64;107209;1267;57675;-76
2022/10/12 11:17:50;;;;;;;15.80;9.70;;;;;;;22.60;40.57;101900.77;107241;1278;73656;-74
2022/10/12 11:20:50;;;;;;;15.00;8.30;;;;;;;22.56;40.70;101897.49;107362;1265;60765;-74
2022/10/12 11:23:41;;;;;;;14.00;7.50;;;;;;;22.13;40.63;101894.14;107295;1273;60018;-75
2022/10/12 11:26:36;;;;;;;17.10;7.10;;;;;;;21.93;40.21;101893.23;107273;1277;73936;-74
2022/10/12 11:29:05;;;;;;;12.80;5.50;;;;;;;22.58;39.42;101896.46;107244;1268;57862;-76
2022/10/12 11:31:38;;;;;;;10.30;6.20;;;;;;;23.17;38.65;101898.36;107230;1270;60634;-75
2022/10/12 11:34:15;;;;;;;14.80;5.80;;;;;;;22.60;37.78;101898.13;107268;1272;62724;-73
2022/10/12 11:36:48;;;;;;;11.20;6.30;;;;;;;22.63;38.61;101893.80;107291;1272;72171;-72
2022/10/12 11:39:44;;;;;;;11.90;7.50;;;;;;;22.35;38.94;101892.41;107245;1274;60163;-76
2022/10/12 11:42:22;;;;;;;9.40;6.70;;;;;;;21.62;40.35;101893.71;107225;1268;63293;-76